Etusivu
METAR-TAF:

METAR-TAF

Lentoasemat :

Arlandan kansainvälinen lentoasema

Tukholma-Arlanda, Ruotsi

Leveyspiiri: 59-39N, Pituuspiiri: 017-57E, korkeus merenpinnasta: 38 m

Tämänhetkinen sää

Tämä raportti tehtiin 15 minuuttia sitten, kello 17.50 UTC
Tuuli 6 kn idästä
Lämpötila 12°C
Kosteus 62%
Ilmanpaine 1019 hPa
Näkyvyys 10 km tai enemmän
Pilvistä 6400 ft:n korkeudessa
heikkoa tihkusadetta

METAR: ESSA 251750Z 09006KT 9999 -DZ OVC064 12/05 Q1019 NOSIG

Aika: 20:05 (18:05 UTC)

Sääennuste

Tämä raportti tehtiin 35 minuuttia sitten, kello 17.30 UTC
Ennuste voimassa 25. päivästä klo 18 UTC - 26. päivään klo 18 UTC
Tuuli 8 kn idästä/koillisesta
Näkyvyys 10 km tai enemmän
ei pilviä alle 1500 m:ssä eikä cumulonimbus-pilviä

TAF: ESSA 251730Z 2518/2618 07008KT CAVOK

Säähavainnot ja -ennusteet yli 4000 lentoasemalta (METAR- ja TAF-raportit).

Käytössä olevat sääasemat on merkitty karttaan keltaisilla ja punaisilla pisteillä.

Aseta hiiri pisteen päälle nähdäksesi sääaseman nimen.

Klikkaa sitten nähdäksesi säähavainnot ja -ennusteet.

Kartan vaihtaminen: klikkaa mustalla rastilla varustettuja vihreitä pisteitä, niin voit zoomata sisään; viivalla varustettua vihreää pistettä, niin voit zoomata ulos tai vihreitä nuolia, niin pääset viereisille kartoille.


METAR-TAF: